LAN1415 SEGU-SEGS
Flight info
| Callsign | LAN1415 |
|---|---|
| Flight time | 1h 40m |
| Altitude | 40000 |
| Route | ASOSI3B ASOSI UW17 SCV |
| Aircraft | B736/M-SDE2E3FGHIRWXY/LB1 |
Departure
| Time | 2026-05-06 21:59 |
|---|---|
| Airport | José Joaquín de Olmedo International Airport (SEGU) |
Arrival
| Time | 2026-05-06 23:40 |
|---|---|
| Airport | Seymour Galapagos Ecological Airport (SEGS) |
| Time | Latitude | Longitude | Altitude | Speed | Heading |
|---|---|---|---|---|---|
| 2026-05-06 21:32 | -2.15024 | -79.88415 | 22 ft | 0 kts | 299° |
| 2026-05-06 21:50 | -2.15033 | -79.88399 | 23 ft | 4 kts | 299° |
| 2026-05-06 21:50 | -2.15044 | -79.88380 | 23 ft | 2 kts | 299° |
| 2026-05-06 21:50 | -2.15053 | -79.88359 | 22 ft | 4 kts | 257° |
| 2026-05-06 21:51 | -2.15041 | -79.88346 | 22 ft | 4 kts | 210° |
| 2026-05-06 21:51 | -2.15033 | -79.88341 | 22 ft | 1 kts | 210° |
| 2026-05-06 21:52 | -2.15036 | -79.88343 | 21 ft | 2 kts | 210° |
| 2026-05-06 21:53 | -2.15067 | -79.88361 | 24 ft | 7 kts | 209° |
| 2026-05-06 21:53 | -2.15121 | -79.88390 | 21 ft | 10 kts | 208° |
| 2026-05-06 21:53 | -2.15181 | -79.88367 | 21 ft | 12 kts | 121° |
| 2026-05-06 21:53 | -2.15226 | -79.88290 | 23 ft | 14 kts | 120° |
| 2026-05-06 21:54 | -2.15291 | -79.88220 | 20 ft | 15 kts | 192° |
| 2026-05-06 21:54 | -2.15387 | -79.88272 | 20 ft | 17 kts | 210° |
| 2026-05-06 21:54 | -2.15493 | -79.88333 | 20 ft | 19 kts | 210° |
| 2026-05-06 21:54 | -2.15611 | -79.88400 | 23 ft | 21 kts | 210° |
| 2026-05-06 21:55 | -2.15740 | -79.88474 | 21 ft | 22 kts | 210° |
| 2026-05-06 21:55 | -2.15878 | -79.88552 | 21 ft | 24 kts | 210° |
| 2026-05-06 21:55 | -2.16025 | -79.88636 | 21 ft | 24 kts | 210° |
| 2026-05-06 21:55 | -2.16167 | -79.88721 | 22 ft | 24 kts | 211° |
| 2026-05-06 21:56 | -2.16314 | -79.88808 | 22 ft | 24 kts | 210° |
| 2026-05-06 21:56 | -2.16456 | -79.88887 | 22 ft | 23 kts | 209° |
| 2026-05-06 21:56 | -2.16596 | -79.88966 | 21 ft | 24 kts | 210° |
| 2026-05-06 21:56 | -2.16702 | -79.89001 | 23 ft | 10 kts | 151° |
| 2026-05-06 21:57 | -2.16731 | -79.88950 | 21 ft | 1 kts | 99° |
| 2026-05-06 21:57 | -2.16722 | -79.88932 | 21 ft | 5 kts | 55° |
| 2026-05-06 21:57 | -2.16712 | -79.88925 | 22 ft | 0 kts | 30° |
| 2026-05-06 21:57 | -2.16711 | -79.88925 | 22 ft | 1 kts | 30° |
| 2026-05-06 21:58 | -2.16549 | -79.88831 | 22 ft | 56 kts | 29° |
| 2026-05-06 21:58 | -2.16053 | -79.88547 | 23 ft | 106 kts | 30° |
| 2026-05-06 21:58 | -2.15304 | -79.88116 | 22 ft | 140 kts | 29° |
| 2026-05-06 21:58 | -2.14397 | -79.87590 | 200 ft | 154 kts | 32° |
| 2026-05-06 21:59 | -2.13445 | -79.87016 | 487 ft | 168 kts | 31° |
| 2026-05-06 21:59 | -2.12406 | -79.86391 | 773 ft | 179 kts | 31° |
| 2026-05-06 21:59 | -2.11316 | -79.85751 | 1101 ft | 184 kts | 29° |
| 2026-05-06 21:59 | -2.10195 | -79.85145 | 1607 ft | 182 kts | 28° |
| 2026-05-06 22:00 | -2.09044 | -79.84534 | 2114 ft | 194 kts | 26° |
| 2026-05-06 22:00 | -2.07714 | -79.84244 | 2578 ft | 204 kts | 347° |
| 2026-05-06 22:00 | -2.06538 | -79.85003 | 3088 ft | 208 kts | 304° |
| 2026-05-06 22:00 | -2.06065 | -79.86362 | 3589 ft | 212 kts | 272° |
| 2026-05-06 22:01 | -2.06191 | -79.87847 | 4086 ft | 219 kts | 260° |
| 2026-05-06 22:01 | -2.06480 | -79.89389 | 4581 ft | 234 kts | 259° |
| 2026-05-06 22:01 | -2.06809 | -79.91040 | 5103 ft | 250 kts | 258° |
| 2026-05-06 22:01 | -2.07169 | -79.92805 | 5599 ft | 268 kts | 259° |
| 2026-05-06 22:02 | -2.07530 | -79.94644 | 6073 ft | 276 kts | 259° |
| 2026-05-06 22:02 | -2.07898 | -79.96550 | 6549 ft | 282 kts | 259° |
| 2026-05-06 22:02 | -2.08267 | -79.98484 | 7010 ft | 284 kts | 259° |
| 2026-05-06 22:02 | -2.08637 | -80.00439 | 7485 ft | 288 kts | 258° |
| 2026-05-06 22:03 | -2.09008 | -80.02415 | 7970 ft | 290 kts | 258° |
| 2026-05-06 22:03 | -2.09381 | -80.04405 | 8444 ft | 292 kts | 258° |
| 2026-05-06 22:03 | -2.09753 | -80.06404 | 8939 ft | 294 kts | 258° |
| 2026-05-06 22:03 | -2.10129 | -80.08422 | 9438 ft | 296 kts | 258° |
| 2026-05-06 22:04 | -2.10505 | -80.10450 | 9919 ft | 298 kts | 258° |
| 2026-05-06 22:04 | -2.10891 | -80.12526 | 10369 ft | 313 kts | 258° |
| 2026-05-06 22:04 | -2.11303 | -80.14740 | 10758 ft | 332 kts | 258° |
| 2026-05-06 22:04 | -2.11736 | -80.17071 | 11159 ft | 350 kts | 258° |
| 2026-05-06 22:05 | -2.12190 | -80.19520 | 11555 ft | 365 kts | 258° |
| 2026-05-06 22:05 | -2.12649 | -80.22002 | 11941 ft | 378 kts | 259° |
| 2026-05-06 22:05 | -2.13135 | -80.24629 | 12344 ft | 390 kts | 259° |
| 2026-05-06 22:05 | -2.13634 | -80.27328 | 12743 ft | 401 kts | 259° |
| 2026-05-06 22:06 | -2.14147 | -80.30103 | 13146 ft | 411 kts | 259° |
| 2026-05-06 22:06 | -2.14672 | -80.32940 | 13562 ft | 419 kts | 259° |
| 2026-05-06 22:06 | -2.15204 | -80.35815 | 13923 ft | 421 kts | 259° |
| 2026-05-06 22:06 | -2.15730 | -80.38664 | 14285 ft | 421 kts | 259° |
| 2026-05-06 22:07 | -2.16263 | -80.41545 | 14649 ft | 422 kts | 259° |
| 2026-05-06 22:07 | -2.16800 | -80.44444 | 15018 ft | 423 kts | 259° |
| 2026-05-06 22:07 | -2.17336 | -80.47346 | 15401 ft | 424 kts | 259° |
| 2026-05-06 22:07 | -2.17873 | -80.50246 | 15776 ft | 426 kts | 259° |
| 2026-05-06 22:08 | -2.18408 | -80.53162 | 16163 ft | 427 kts | 259° |
| 2026-05-06 22:08 | -2.18796 | -80.56123 | 16553 ft | 431 kts | 264° |
| 2026-05-06 22:08 | -2.19057 | -80.59136 | 16949 ft | 436 kts | 265° |
| 2026-05-06 22:08 | -2.19276 | -80.62168 | 17350 ft | 440 kts | 265° |
| 2026-05-06 22:09 | -2.19496 | -80.65226 | 17761 ft | 442 kts | 265° |
| 2026-05-06 22:09 | -2.19729 | -80.68259 | 18161 ft | 443 kts | 265° |
| 2026-05-06 22:09 | -2.19979 | -80.71332 | 18512 ft | 444 kts | 265° |
| 2026-05-06 22:09 | -2.20239 | -80.74412 | 18864 ft | 446 kts | 264° |
| 2026-05-06 22:10 | -2.20506 | -80.77503 | 19218 ft | 447 kts | 264° |
| 2026-05-06 22:10 | -2.20776 | -80.80613 | 19596 ft | 449 kts | 265° |
| 2026-05-06 22:10 | -2.21047 | -80.83741 | 19963 ft | 452 kts | 265° |
| 2026-05-06 22:10 | -2.21319 | -80.86880 | 20337 ft | 454 kts | 265° |
| 2026-05-06 22:11 | -2.21591 | -80.90031 | 20717 ft | 456 kts | 265° |
| 2026-05-06 22:11 | -2.21864 | -80.93200 | 21102 ft | 458 kts | 265° |
| 2026-05-06 22:11 | -2.22076 | -80.96377 | 21482 ft | 460 kts | 269° |
| 2026-05-06 22:11 | -2.21855 | -80.99568 | 21856 ft | 461 kts | 279° |
| 2026-05-06 22:12 | -2.21269 | -81.02724 | 22277 ft | 462 kts | 282° |
| 2026-05-06 22:12 | -2.20634 | -81.05879 | 22694 ft | 464 kts | 282° |
| 2026-05-06 22:12 | -2.19997 | -81.09006 | 23082 ft | 465 kts | 282° |
| 2026-05-06 22:12 | -2.19352 | -81.12220 | 23494 ft | 467 kts | 282° |
| 2026-05-06 22:13 | -2.18725 | -81.15405 | 23833 ft | 468 kts | 282° |
| 2026-05-06 22:13 | -2.18114 | -81.18563 | 24175 ft | 469 kts | 282° |
| 2026-05-06 22:13 | -2.17501 | -81.21768 | 24526 ft | 470 kts | 281° |
| 2026-05-06 22:13 | -2.16888 | -81.24990 | 24863 ft | 472 kts | 281° |
| 2026-05-06 22:14 | -2.16275 | -81.28220 | 25139 ft | 475 kts | 281° |
| 2026-05-06 22:14 | -2.15655 | -81.31482 | 25412 ft | 478 kts | 282° |
| 2026-05-06 22:14 | -2.15033 | -81.34758 | 25690 ft | 480 kts | 282° |
| 2026-05-06 22:14 | -2.14408 | -81.38044 | 25969 ft | 482 kts | 282° |
| 2026-05-06 22:15 | -2.13990 | -81.40238 | 26155 ft | 484 kts | 282° |
| 2026-05-06 22:15 | -2.13360 | -81.43551 | 26432 ft | 485 kts | 282° |
| 2026-05-06 22:15 | -2.12726 | -81.46877 | 26722 ft | 487 kts | 282° |
| 2026-05-06 22:15 | -2.11885 | -81.51292 | 27111 ft | 488 kts | 282° |
| 2026-05-06 22:16 | -2.11249 | -81.54632 | 27420 ft | 489 kts | 282° |
| 2026-05-06 22:16 | -2.10820 | -81.56887 | 27634 ft | 489 kts | 282° |
| 2026-05-06 22:16 | -2.10182 | -81.60232 | 27954 ft | 490 kts | 282° |
| 2026-05-06 22:16 | -2.09544 | -81.63582 | 28278 ft | 490 kts | 282° |
| 2026-05-06 22:17 | -2.08906 | -81.66933 | 28608 ft | 491 kts | 282° |
| 2026-05-06 22:17 | -2.08268 | -81.70278 | 28939 ft | 491 kts | 282° |
| 2026-05-06 22:17 | -2.07637 | -81.73588 | 29270 ft | 491 kts | 282° |
| 2026-05-06 22:17 | -2.06998 | -81.76943 | 29609 ft | 491 kts | 282° |
| 2026-05-06 22:18 | -2.06358 | -81.80299 | 29948 ft | 491 kts | 281° |
| 2026-05-06 22:18 | -2.05720 | -81.83649 | 30244 ft | 491 kts | 281° |
| 2026-05-06 22:18 | -2.05083 | -81.87010 | 30529 ft | 490 kts | 281° |
| 2026-05-06 22:18 | -2.04545 | -81.90374 | 30834 ft | 488 kts | 278° |
| 2026-05-06 22:19 | -2.04093 | -81.93724 | 31133 ft | 486 kts | 278° |
| 2026-05-06 22:19 | -2.03677 | -81.97065 | 31439 ft | 483 kts | 277° |
| 2026-05-06 22:19 | -2.03266 | -82.00400 | 31742 ft | 480 kts | 277° |
| 2026-05-06 22:19 | -2.02853 | -82.03698 | 32048 ft | 477 kts | 278° |
| 2026-05-06 22:20 | -2.02431 | -82.06980 | 32358 ft | 474 kts | 278° |
| 2026-05-06 22:20 | -2.02006 | -82.10229 | 32673 ft | 470 kts | 278° |
| 2026-05-06 22:20 | -2.01579 | -82.13457 | 32990 ft | 466 kts | 278° |
| 2026-05-06 22:20 | -2.01153 | -82.16657 | 33313 ft | 463 kts | 278° |
| 2026-05-06 22:21 | -2.00730 | -82.19833 | 33642 ft | 459 kts | 278° |
| 2026-05-06 22:21 | -2.00311 | -82.22981 | 33961 ft | 454 kts | 278° |
| 2026-05-06 22:21 | -1.99896 | -82.26101 | 34243 ft | 450 kts | 278° |
| 2026-05-06 22:21 | -1.99485 | -82.29188 | 34531 ft | 447 kts | 278° |
| 2026-05-06 22:22 | -1.99077 | -82.32255 | 34822 ft | 443 kts | 278° |
| 2026-05-06 22:22 | -1.98677 | -82.35265 | 35117 ft | 440 kts | 278° |
| 2026-05-06 22:22 | -1.98275 | -82.38290 | 35412 ft | 437 kts | 278° |
| 2026-05-06 22:22 | -1.97876 | -82.41290 | 35711 ft | 435 kts | 278° |
| 2026-05-06 22:23 | -1.97477 | -82.44290 | 36030 ft | 433 kts | 278° |
| 2026-05-06 22:23 | -1.97080 | -82.47273 | 36335 ft | 432 kts | 278° |
| 2026-05-06 22:23 | -1.96684 | -82.50250 | 36630 ft | 432 kts | 278° |
| 2026-05-06 22:23 | -1.96288 | -82.53233 | 36887 ft | 433 kts | 278° |
| 2026-05-06 22:24 | -1.95889 | -82.56227 | 37140 ft | 435 kts | 278° |
| 2026-05-06 22:24 | -1.95490 | -82.59221 | 37379 ft | 436 kts | 278° |
| 2026-05-06 22:24 | -1.95085 | -82.62241 | 37613 ft | 438 kts | 278° |
| 2026-05-06 22:24 | -1.94684 | -82.65223 | 37846 ft | 439 kts | 278° |
| 2026-05-06 22:25 | -1.93866 | -82.71306 | 37891 ft | 442 kts | 278° |
| 2026-05-06 22:25 | -1.93054 | -82.77359 | 37883 ft | 436 kts | 278° |
| 2026-05-06 22:26 | -1.92248 | -82.83362 | 37891 ft | 435 kts | 278° |
| 2026-05-06 22:26 | -1.91444 | -82.89343 | 37891 ft | 434 kts | 278° |
| 2026-05-06 22:27 | -1.90641 | -82.95322 | 37893 ft | 433 kts | 278° |
| 2026-05-06 22:27 | -1.89839 | -83.01293 | 37895 ft | 434 kts | 278° |
| 2026-05-06 22:28 | -1.89034 | -83.07285 | 37890 ft | 435 kts | 278° |
| 2026-05-06 22:28 | -1.88230 | -83.13262 | 37893 ft | 437 kts | 278° |
| 2026-05-06 22:29 | -1.87420 | -83.19289 | 37897 ft | 439 kts | 278° |
| 2026-05-06 22:29 | -1.86605 | -83.25344 | 37895 ft | 440 kts | 278° |
| 2026-05-06 22:30 | -1.85787 | -83.31423 | 37895 ft | 441 kts | 278° |
| 2026-05-06 22:30 | -1.84967 | -83.37517 | 37896 ft | 442 kts | 278° |
| 2026-05-06 22:31 | -1.84147 | -83.43607 | 37897 ft | 442 kts | 278° |
| 2026-05-06 22:31 | -1.83326 | -83.49705 | 37896 ft | 442 kts | 278° |
| 2026-05-06 22:32 | -1.82504 | -83.55808 | 37894 ft | 442 kts | 278° |
| 2026-05-06 22:32 | -1.81689 | -83.61860 | 37893 ft | 441 kts | 278° |
| 2026-05-06 22:33 | -1.80870 | -83.67936 | 37893 ft | 440 kts | 278° |
| 2026-05-06 22:33 | -1.80053 | -83.74002 | 37893 ft | 440 kts | 278° |
| 2026-05-06 22:34 | -1.79237 | -83.80053 | 37894 ft | 439 kts | 278° |
| 2026-05-06 22:34 | -1.78422 | -83.86097 | 37894 ft | 438 kts | 278° |
| 2026-05-06 22:35 | -1.77613 | -83.92097 | 37892 ft | 438 kts | 278° |
| 2026-05-06 22:35 | -1.76797 | -83.98141 | 37896 ft | 438 kts | 278° |
| 2026-05-06 22:36 | -1.75981 | -84.04187 | 37896 ft | 438 kts | 278° |
| 2026-05-06 22:36 | -1.75171 | -84.10188 | 37897 ft | 438 kts | 278° |
| 2026-05-06 22:37 | -1.74358 | -84.16229 | 37894 ft | 439 kts | 278° |
| 2026-05-06 22:37 | -1.73548 | -84.22279 | 37896 ft | 439 kts | 278° |
| 2026-05-06 22:38 | -1.72738 | -84.28328 | 37899 ft | 439 kts | 278° |
| 2026-05-06 22:38 | -1.71925 | -84.34395 | 37898 ft | 440 kts | 279° |
| 2026-05-06 22:39 | -1.71112 | -84.40460 | 37897 ft | 441 kts | 279° |
| 2026-05-06 22:39 | -1.70298 | -84.46537 | 37895 ft | 441 kts | 278° |
| 2026-05-06 22:40 | -1.69481 | -84.52622 | 37897 ft | 441 kts | 279° |
| 2026-05-06 22:40 | -1.68670 | -84.58674 | 37896 ft | 442 kts | 279° |
| 2026-05-06 22:41 | -1.67444 | -84.67812 | 37892 ft | 442 kts | 279° |
| 2026-05-06 22:42 | -1.66625 | -84.73913 | 37897 ft | 442 kts | 279° |
| 2026-05-06 22:42 | -1.65807 | -84.80006 | 37892 ft | 442 kts | 279° |
| 2026-05-06 22:43 | -1.64988 | -84.86103 | 37893 ft | 442 kts | 279° |
| 2026-05-06 22:43 | -1.64170 | -84.92196 | 37893 ft | 442 kts | 279° |
| 2026-05-06 22:44 | -1.63352 | -84.98287 | 37893 ft | 442 kts | 279° |
| 2026-05-06 22:44 | -1.62537 | -85.04349 | 37897 ft | 442 kts | 279° |
| 2026-05-06 22:45 | -1.61718 | -85.10445 | 37896 ft | 442 kts | 279° |
| 2026-05-06 22:45 | -1.60899 | -85.16540 | 37891 ft | 442 kts | 279° |
| 2026-05-06 22:46 | -1.60087 | -85.22634 | 37891 ft | 442 kts | 279° |
| 2026-05-06 22:46 | -1.59274 | -85.28734 | 37896 ft | 442 kts | 279° |
| 2026-05-06 22:47 | -1.58462 | -85.34835 | 37893 ft | 442 kts | 279° |
| 2026-05-06 22:47 | -1.57655 | -85.40885 | 37894 ft | 443 kts | 279° |
| 2026-05-06 22:48 | -1.56840 | -85.46994 | 37893 ft | 443 kts | 279° |
| 2026-05-06 22:48 | -1.56025 | -85.53100 | 37893 ft | 443 kts | 279° |
| 2026-05-06 22:49 | -1.55211 | -85.59202 | 37891 ft | 443 kts | 279° |
| 2026-05-06 22:49 | -1.54394 | -85.65327 | 37895 ft | 444 kts | 279° |
| 2026-05-06 22:50 | -1.53577 | -85.71446 | 37893 ft | 444 kts | 279° |
| 2026-05-06 22:50 | -1.52760 | -85.77560 | 37894 ft | 444 kts | 279° |
| 2026-05-06 22:51 | -1.51943 | -85.83678 | 37885 ft | 445 kts | 279° |
| 2026-05-06 22:51 | -1.51124 | -85.89812 | 37893 ft | 445 kts | 279° |
| 2026-05-06 22:52 | -1.50302 | -85.95958 | 37895 ft | 446 kts | 279° |
| 2026-05-06 22:52 | -1.49481 | -86.02102 | 37893 ft | 446 kts | 279° |
| 2026-05-06 22:53 | -1.48663 | -86.08227 | 37891 ft | 447 kts | 279° |
| 2026-05-06 22:53 | -1.47840 | -86.14380 | 37893 ft | 447 kts | 279° |
| 2026-05-06 22:54 | -1.47014 | -86.20553 | 37893 ft | 447 kts | 279° |
| 2026-05-06 22:54 | -1.46189 | -86.26723 | 37894 ft | 447 kts | 279° |
| 2026-05-06 22:55 | -1.45365 | -86.32883 | 37893 ft | 447 kts | 279° |
| 2026-05-06 22:55 | -1.44540 | -86.39047 | 37893 ft | 447 kts | 279° |
| 2026-05-06 22:56 | -1.43721 | -86.45162 | 37895 ft | 447 kts | 279° |
| 2026-05-06 22:56 | -1.42896 | -86.51315 | 37892 ft | 447 kts | 279° |
| 2026-05-06 22:57 | -1.42069 | -86.57472 | 37890 ft | 446 kts | 279° |
| 2026-05-06 22:57 | -1.41245 | -86.63620 | 37894 ft | 446 kts | 279° |
| 2026-05-06 22:58 | -1.40420 | -86.69764 | 37893 ft | 446 kts | 279° |
| 2026-05-06 22:58 | -1.39595 | -86.75913 | 37894 ft | 446 kts | 279° |
| 2026-05-06 22:59 | -1.38770 | -86.82064 | 37893 ft | 446 kts | 279° |
| 2026-05-06 22:59 | -1.37945 | -86.88206 | 37893 ft | 446 kts | 279° |
| 2026-05-06 23:00 | -1.37120 | -86.94351 | 37894 ft | 446 kts | 279° |
| 2026-05-06 23:00 | -1.36298 | -87.00473 | 37895 ft | 446 kts | 279° |
| 2026-05-06 23:01 | -1.35472 | -87.06617 | 37895 ft | 447 kts | 279° |
| 2026-05-06 23:01 | -1.34643 | -87.12788 | 37894 ft | 447 kts | 279° |
| 2026-05-06 23:02 | -1.33815 | -87.18951 | 37893 ft | 448 kts | 279° |
| 2026-05-06 23:02 | -1.32985 | -87.25127 | 37894 ft | 448 kts | 279° |
| 2026-05-06 23:03 | -1.32295 | -87.30262 | 37891 ft | 448 kts | 279° |
| 2026-05-06 23:03 | -1.31465 | -87.36436 | 37896 ft | 448 kts | 279° |
| 2026-05-06 23:04 | -1.30634 | -87.42612 | 37897 ft | 448 kts | 279° |
| 2026-05-06 23:04 | -1.29804 | -87.48787 | 37895 ft | 448 kts | 279° |
| 2026-05-06 23:05 | -1.28973 | -87.54961 | 37890 ft | 448 kts | 279° |
| 2026-05-06 23:05 | -1.28144 | -87.61128 | 37893 ft | 448 kts | 279° |
| 2026-05-06 23:06 | -1.27314 | -87.67293 | 37893 ft | 447 kts | 279° |
| 2026-05-06 23:06 | -1.26483 | -87.73459 | 37917 ft | 447 kts | 279° |
| 2026-05-06 23:07 | -1.25645 | -87.79598 | 37971 ft | 445 kts | 279° |
| 2026-05-06 23:07 | -1.24802 | -87.85744 | 37921 ft | 447 kts | 279° |
| 2026-05-06 23:08 | -1.23966 | -87.91852 | 37888 ft | 447 kts | 279° |
| 2026-05-06 23:08 | -1.22801 | -87.97945 | 37899 ft | 446 kts | 283° |
| 2026-05-06 23:09 | -1.21493 | -88.04005 | 37891 ft | 446 kts | 283° |
| 2026-05-06 23:09 | -1.20243 | -88.10081 | 37894 ft | 446 kts | 282° |
| 2026-05-06 23:10 | -1.19046 | -88.16148 | 37891 ft | 446 kts | 282° |
| 2026-05-06 23:10 | -1.17860 | -88.22238 | 37897 ft | 445 kts | 282° |
| 2026-05-06 23:11 | -1.16679 | -88.28310 | 37898 ft | 445 kts | 282° |
| 2026-05-06 23:11 | -1.15496 | -88.34384 | 37896 ft | 445 kts | 282° |
| 2026-05-06 23:12 | -1.14312 | -88.40452 | 37894 ft | 445 kts | 282° |
| 2026-05-06 23:12 | -1.13126 | -88.46531 | 37897 ft | 445 kts | 282° |
| 2026-05-06 23:13 | -1.11950 | -88.52561 | 37892 ft | 445 kts | 282° |
| 2026-05-06 23:13 | -1.10763 | -88.58645 | 37894 ft | 446 kts | 282° |
| 2026-05-06 23:13 | -1.10164 | -88.61715 | 37377 ft | 452 kts | 282° |
| 2026-05-06 23:14 | -1.09565 | -88.64784 | 36779 ft | 449 kts | 282° |
| 2026-05-06 23:14 | -1.08968 | -88.67846 | 36124 ft | 447 kts | 282° |
| 2026-05-06 23:14 | -1.08374 | -88.70892 | 35433 ft | 448 kts | 282° |
| 2026-05-06 23:14 | -1.07780 | -88.73936 | 34905 ft | 444 kts | 282° |
| 2026-05-06 23:15 | -1.07191 | -88.76957 | 34360 ft | 442 kts | 282° |
| 2026-05-06 23:15 | -1.06604 | -88.79962 | 33838 ft | 439 kts | 283° |
| 2026-05-06 23:15 | -1.06024 | -88.82936 | 33265 ft | 436 kts | 283° |
| 2026-05-06 23:15 | -1.05445 | -88.85904 | 32752 ft | 432 kts | 282° |
| 2026-05-06 23:16 | -1.04871 | -88.88840 | 32255 ft | 429 kts | 282° |
| 2026-05-06 23:16 | -1.04302 | -88.91754 | 31773 ft | 426 kts | 282° |
| 2026-05-06 23:16 | -1.03736 | -88.94655 | 31257 ft | 424 kts | 282° |
| 2026-05-06 23:16 | -1.03173 | -88.97536 | 30781 ft | 421 kts | 282° |
| 2026-05-06 23:17 | -1.02613 | -89.00405 | 30296 ft | 419 kts | 282° |
| 2026-05-06 23:17 | -1.02056 | -89.03256 | 29792 ft | 417 kts | 282° |
| 2026-05-06 23:17 | -1.01503 | -89.06090 | 29270 ft | 414 kts | 282° |
| 2026-05-06 23:17 | -1.00953 | -89.08903 | 28763 ft | 410 kts | 282° |
| 2026-05-06 23:18 | -1.00408 | -89.11694 | 28276 ft | 407 kts | 282° |
| 2026-05-06 23:18 | -0.99869 | -89.14455 | 27803 ft | 403 kts | 282° |
| 2026-05-06 23:18 | -0.99342 | -89.17157 | 27341 ft | 400 kts | 282° |
| 2026-05-06 23:18 | -0.98811 | -89.19872 | 26885 ft | 397 kts | 282° |
| 2026-05-06 23:19 | -0.98284 | -89.22573 | 26401 ft | 395 kts | 282° |
| 2026-05-06 23:19 | -0.97759 | -89.25256 | 25935 ft | 393 kts | 282° |
| 2026-05-06 23:19 | -0.97237 | -89.27928 | 25468 ft | 391 kts | 282° |
| 2026-05-06 23:19 | -0.96716 | -89.30597 | 25005 ft | 390 kts | 282° |
| 2026-05-06 23:20 | -0.96198 | -89.33247 | 24547 ft | 388 kts | 282° |
| 2026-05-06 23:20 | -0.95681 | -89.35892 | 24094 ft | 387 kts | 282° |
| 2026-05-06 23:20 | -0.95166 | -89.38530 | 23633 ft | 386 kts | 281° |
| 2026-05-06 23:20 | -0.94651 | -89.41163 | 23120 ft | 386 kts | 281° |
| 2026-05-06 23:21 | -0.94139 | -89.43785 | 22634 ft | 383 kts | 281° |
| 2026-05-06 23:21 | -0.93629 | -89.46395 | 22177 ft | 380 kts | 281° |
| 2026-05-06 23:21 | -0.93125 | -89.48978 | 21733 ft | 377 kts | 281° |
| 2026-05-06 23:21 | -0.92623 | -89.51545 | 21293 ft | 375 kts | 281° |
| 2026-05-06 23:22 | -0.92124 | -89.54100 | 20841 ft | 373 kts | 281° |
| 2026-05-06 23:22 | -0.91629 | -89.56633 | 20388 ft | 371 kts | 281° |
| 2026-05-06 23:22 | -0.91135 | -89.59159 | 19954 ft | 369 kts | 281° |
| 2026-05-06 23:22 | -0.90425 | -89.61613 | 19501 ft | 367 kts | 292° |
| 2026-05-06 23:23 | -0.89275 | -89.63910 | 18779 ft | 374 kts | 304° |
| 2026-05-06 23:23 | -0.87795 | -89.66048 | 18263 ft | 374 kts | 306° |
| 2026-05-06 23:23 | -0.86296 | -89.68173 | 17737 ft | 373 kts | 306° |
| 2026-05-06 23:23 | -0.84824 | -89.70256 | 17284 ft | 370 kts | 306° |
| 2026-05-06 23:24 | -0.83332 | -89.72377 | 16843 ft | 366 kts | 306° |
| 2026-05-06 23:24 | -0.81898 | -89.74422 | 16425 ft | 362 kts | 306° |
| 2026-05-06 23:24 | -0.80462 | -89.76477 | 16007 ft | 359 kts | 306° |
| 2026-05-06 23:24 | -0.79043 | -89.78512 | 15594 ft | 355 kts | 306° |
| 2026-05-06 23:25 | -0.77637 | -89.80531 | 15185 ft | 352 kts | 305° |
| 2026-05-06 23:25 | -0.76253 | -89.82520 | 14775 ft | 349 kts | 305° |
| 2026-05-06 23:25 | -0.74861 | -89.84520 | 14355 ft | 347 kts | 305° |
| 2026-05-06 23:25 | -0.73492 | -89.86488 | 13955 ft | 344 kts | 305° |
| 2026-05-06 23:26 | -0.72129 | -89.88447 | 13523 ft | 342 kts | 305° |
| 2026-05-06 23:26 | -0.70776 | -89.90392 | 13096 ft | 339 kts | 305° |
| 2026-05-06 23:26 | -0.69435 | -89.92320 | 12684 ft | 335 kts | 305° |
| 2026-05-06 23:26 | -0.68111 | -89.94224 | 12283 ft | 332 kts | 305° |
| 2026-05-06 23:27 | -0.66801 | -89.96107 | 11881 ft | 329 kts | 305° |
| 2026-05-06 23:27 | -0.65515 | -89.97956 | 11498 ft | 326 kts | 305° |
| 2026-05-06 23:27 | -0.64226 | -89.99810 | 11128 ft | 322 kts | 306° |
| 2026-05-06 23:27 | -0.62968 | -90.01618 | 10754 ft | 320 kts | 306° |
| 2026-05-06 23:28 | -0.61705 | -90.03434 | 10368 ft | 317 kts | 306° |
| 2026-05-06 23:28 | -0.60460 | -90.05224 | 10170 ft | 308 kts | 306° |
| 2026-05-06 23:28 | -0.59253 | -90.06959 | 10014 ft | 299 kts | 306° |
| 2026-05-06 23:28 | -0.58087 | -90.08636 | 9826 ft | 291 kts | 306° |
| 2026-05-06 23:29 | -0.56932 | -90.10296 | 9486 ft | 289 kts | 306° |
| 2026-05-06 23:29 | -0.55788 | -90.11940 | 9159 ft | 287 kts | 306° |
| 2026-05-06 23:29 | -0.54650 | -90.13575 | 8842 ft | 285 kts | 306° |
| 2026-05-06 23:29 | -0.53520 | -90.15199 | 8526 ft | 283 kts | 305° |
| 2026-05-06 23:30 | -0.52399 | -90.16810 | 8202 ft | 282 kts | 305° |
| 2026-05-06 23:30 | -0.51287 | -90.18409 | 7886 ft | 280 kts | 305° |
| 2026-05-06 23:30 | -0.50174 | -90.20008 | 7582 ft | 278 kts | 305° |
| 2026-05-06 23:30 | -0.49075 | -90.21589 | 7276 ft | 276 kts | 304° |
| 2026-05-06 23:31 | -0.47985 | -90.23155 | 6976 ft | 274 kts | 304° |
| 2026-05-06 23:31 | -0.46899 | -90.24715 | 6668 ft | 273 kts | 304° |
| 2026-05-06 23:31 | -0.45838 | -90.26282 | 6359 ft | 272 kts | 300° |
| 2026-05-06 23:31 | -0.44959 | -90.27956 | 6010 ft | 271 kts | 295° |
| 2026-05-06 23:32 | -0.44147 | -90.29652 | 5697 ft | 270 kts | 294° |
| 2026-05-06 23:32 | -0.43342 | -90.31333 | 5412 ft | 266 kts | 294° |
| 2026-05-06 23:32 | -0.42559 | -90.32941 | 5213 ft | 253 kts | 294° |
| 2026-05-06 23:32 | -0.41806 | -90.34466 | 5106 ft | 238 kts | 295° |
| 2026-05-06 23:33 | -0.41091 | -90.35906 | 4991 ft | 224 kts | 295° |
| 2026-05-06 23:33 | -0.40414 | -90.37267 | 4900 ft | 214 kts | 294° |
| 2026-05-06 23:33 | -0.39761 | -90.38579 | 4855 ft | 210 kts | 295° |
| 2026-05-06 23:33 | -0.39083 | -90.39881 | 4651 ft | 214 kts | 302° |
| 2026-05-06 23:34 | -0.38047 | -90.40924 | 4423 ft | 212 kts | 326° |
| 2026-05-06 23:34 | -0.36688 | -90.41443 | 4202 ft | 209 kts | 351° |
| 2026-05-06 23:34 | -0.35270 | -90.41383 | 3978 ft | 202 kts | 14° |
| 2026-05-06 23:34 | -0.34027 | -90.40801 | 3768 ft | 194 kts | 37° |
| 2026-05-06 23:35 | -0.33136 | -90.39848 | 3571 ft | 183 kts | 59° |
| 2026-05-06 23:35 | -0.32670 | -90.38707 | 3374 ft | 174 kts | 80° |
| 2026-05-06 23:35 | -0.32620 | -90.37515 | 3187 ft | 174 kts | 99° |
| 2026-05-06 23:35 | -0.32953 | -90.36347 | 2997 ft | 176 kts | 117° |
| 2026-05-06 23:36 | -0.33574 | -90.35326 | 2770 ft | 173 kts | 132° |
| 2026-05-06 23:36 | -0.34471 | -90.34546 | 2569 ft | 170 kts | 146° |
| 2026-05-06 23:36 | -0.35427 | -90.33850 | 2332 ft | 170 kts | 147° |
| 2026-05-06 23:36 | -0.36382 | -90.33162 | 2068 ft | 166 kts | 147° |
| 2026-05-06 23:37 | -0.37295 | -90.32494 | 1837 ft | 156 kts | 147° |
| 2026-05-06 23:37 | -0.38119 | -90.31891 | 1680 ft | 137 kts | 147° |
| 2026-05-06 23:37 | -0.38859 | -90.31350 | 1510 ft | 130 kts | 148° |
| 2026-05-06 23:37 | -0.39588 | -90.30817 | 1327 ft | 129 kts | 148° |
| 2026-05-06 23:38 | -0.40313 | -90.30288 | 1158 ft | 129 kts | 147° |
| 2026-05-06 23:38 | -0.41034 | -90.29761 | 997 ft | 128 kts | 147° |
| 2026-05-06 23:38 | -0.41762 | -90.29235 | 857 ft | 129 kts | 145° |
| 2026-05-06 23:38 | -0.42495 | -90.28698 | 689 ft | 132 kts | 142° |
| 2026-05-06 23:39 | -0.43241 | -90.28152 | 516 ft | 133 kts | 141° |
| 2026-05-06 23:39 | -0.43984 | -90.27603 | 306 ft | 132 kts | 140° |
| 2026-05-06 23:39 | -0.44717 | -90.27071 | 144 ft | 127 kts | 141° |
| 2026-05-06 23:39 | -0.45296 | -90.26647 | 159 ft | 73 kts | 144° |
| 2026-05-06 23:40 | -0.45564 | -90.26454 | 167 ft | 35 kts | 144° |
| 2026-05-06 23:40 | -0.45749 | -90.26319 | 174 ft | 30 kts | 145° |
| 2026-05-06 23:40 | -0.45881 | -90.26235 | 179 ft | 12 kts | 112° |
| 2026-05-06 23:40 | -0.45864 | -90.26225 | 179 ft | 3 kts | 314° |
| 2026-05-06 23:41 | -0.45843 | -90.26250 | 178 ft | 6 kts | 311° |
| 2026-05-06 23:41 | -0.45797 | -90.26286 | 176 ft | 11 kts | 324° |
| 2026-05-06 23:41 | -0.45722 | -90.26340 | 173 ft | 16 kts | 324° |
| 2026-05-06 23:41 | -0.45619 | -90.26413 | 169 ft | 20 kts | 323° |
| 2026-05-06 23:42 | -0.45497 | -90.26504 | 165 ft | 23 kts | 324° |
| 2026-05-06 23:42 | -0.45357 | -90.26605 | 160 ft | 26 kts | 324° |
| 2026-05-06 23:42 | -0.45217 | -90.26708 | 157 ft | 24 kts | 324° |
| 2026-05-06 23:42 | -0.45087 | -90.26801 | 153 ft | 23 kts | 324° |
| 2026-05-06 23:43 | -0.44959 | -90.26893 | 150 ft | 22 kts | 323° |
| 2026-05-06 23:43 | -0.44837 | -90.26981 | 146 ft | 22 kts | 324° |
| 2026-05-06 23:43 | -0.44733 | -90.27019 | 142 ft | 11 kts | 8° |
| 2026-05-06 23:43 | -0.44665 | -90.27051 | 140 ft | 11 kts | 351° |
| 2026-05-06 23:44 | -0.44616 | -90.27000 | 139 ft | 11 kts | 82° |
| 2026-05-06 23:44 | -0.44605 | -90.26943 | 140 ft | 0 kts | 22° |
| 2026-05-06 23:46 | -0.44585 | -90.26989 | 139 ft | 0 kts | 83° |